Time;durP1;ratioP1;P1;durP2;ratioP2;P2;SDS_P1;SDS_P2;PMS_P1;PMS_P2;Temp;Humidity;BMP_temperature;BMP_pressure;BME280_temperature;BME280_humidity;BME280_pressure;Samples;Min_cycle;Max_cycle;Signal;HPM_P1;HPM_P2
2023/03/25 00:00:16;;;;;;;3.70;1.40;;;10.10;1.00;;;;;;4961921;28;20231;-65
2023/03/25 00:02:48;;;;;;;2.40;1.30;;;10.10;1.00;;;;;;4961936;28;20191;-65
2023/03/25 00:05:18;;;;;;;2.20;1.30;;;10.10;1.00;;;;;;4975371;28;20202;-64
2023/03/25 00:07:49;;;;;;;3.80;1.40;;;10.00;1.00;;;;;;4959577;28;20257;-64
2023/03/25 00:10:16;;;;;;;2.57;1.20;;;10.00;1.00;;;;;;4974796;28;20594;-67
2023/03/25 00:12:43;;;;;;;1.83;1.23;;;10.00;1.00;;;;;;4974216;28;20270;-65
2023/03/25 00:15:15;;;;;;;3.47;1.37;;;9.90;1.00;;;;;;4968907;28;20221;-64
2023/03/25 00:17:42;;;;;;;3.57;1.40;;;9.90;1.00;;;;;;4960356;28;20226;-64
2023/03/25 00:20:11;;;;;;;6.17;1.50;;;9.90;1.00;;;;;;4958233;28;20211;-65
2023/03/25 00:22:40;;;;;;;1.77;1.47;;;9.90;1.00;;;;;;4958541;28;20252;-65
2023/03/25 00:25:09;;;;;;;4.50;1.50;;;9.80;1.00;;;;;;4960666;28;20195;-65
2023/03/25 00:27:37;;;;;;;3.43;1.40;;;9.80;1.00;;;;;;4961301;28;20234;-65
2023/03/25 00:30:05;;;;;;;9.33;5.50;;;9.80;1.00;;;;;;4977218;28;20217;-65
2023/03/25 00:32:32;;;;;;;3.63;2.13;;;9.80;1.00;;;;;;4962042;28;20211;-66
2023/03/25 00:34:59;;;;;;;3.50;1.83;;;9.80;1.00;;;;;;4956246;28;20194;-68
2023/03/25 00:37:26;;;;;;;5.73;1.57;;;9.70;1.00;;;;;;4971038;28;20333;-65
2023/03/25 00:39:53;;;;;;;3.27;1.33;;;9.80;1.00;;;;;;4971709;28;20206;-64
2023/03/25 00:42:28;;;;;;;5.83;2.50;;;9.70;1.00;;;;;;4962402;28;20543;-64
2023/03/25 00:44:55;;;;;;;3.33;1.33;;;9.70;1.00;;;;;;4974820;28;20843;-64
2023/03/25 00:47:23;;;;;;;3.07;1.50;;;9.70;1.00;;;;;;4976830;28;20235;-64
2023/03/25 00:49:50;;;;;;;5.57;1.80;;;9.70;1.00;;;;;;4977484;28;20265;-65
2023/03/25 00:52:21;;;;;;;4.47;2.17;;;9.60;1.00;;;;;;4972938;28;20941;-65
2023/03/25 00:54:49;;;;;;;4.20;1.57;;;9.50;1.00;;;;;;4962307;28;20265;-65
2023/03/25 00:57:16;;;;;;;4.67;2.43;;;9.50;1.00;;;;;;4977895;28;20280;-64
2023/03/25 00:59:43;;;;;;;4.17;2.33;;;9.60;1.00;;;;;;4978462;28;20328;-68
2023/03/25 01:02:10;;;;;;;7.03;1.70;;;9.60;1.00;;;;;;4964083;28;20694;-68
2023/03/25 01:04:38;;;;;;;5.13;2.73;;;9.70;1.00;;;;;;4960970;28;20269;-64
2023/03/25 01:07:08;;;;;;;5.07;1.73;;;9.70;1.00;;;;;;4977819;28;20741;-65
2023/03/25 01:09:36;;;;;;;4.80;3.33;;;9.70;1.00;;;;;;4957500;28;20579;-65
2023/03/25 01:12:03;;;;;;;5.23;2.83;;;9.70;1.00;;;;;;4962395;28;20250;-66
2023/03/25 01:14:30;;;;;;;5.00;2.40;;;9.70;1.00;;;;;;4962087;28;20203;-64
2023/03/25 01:16:58;;;;;;;5.83;2.60;;;9.70;1.00;;;;;;4963086;28;20241;-65
2023/03/25 01:19:29;;;;;;;6.93;2.10;;;9.70;1.00;;;;;;4962762;28;20190;-64
2023/03/25 01:21:56;;;;;;;5.67;2.20;;;9.70;1.00;;;;;;4962743;28;20201;-64
2023/03/25 01:24:24;;;;;;;6.37;2.23;;;9.70;1.00;;;;;;4962338;28;20289;-66
2023/03/25 01:26:51;;;;;;;8.50;1.90;;;9.80;1.00;;;;;;4959395;28;20745;-66
2023/03/25 01:29:20;;;;;;;5.80;1.80;;;9.70;1.00;;;;;;4961704;28;20590;-67
2023/03/25 01:31:47;;;;;;;5.77;1.87;;;9.70;1.00;;;;;;4945480;28;20585;-66
2023/03/25 01:34:14;;;;;;;5.97;1.90;;;9.70;1.00;;;;;;4962048;28;20198;-67
2023/03/25 01:36:45;;;;;;;6.67;2.10;;;9.70;1.00;;;;;;4961892;28;20210;-65
2023/03/25 01:39:15;;;;;;;5.67;1.70;;;9.70;1.00;;;;;;4975328;28;20713;-67
2023/03/25 01:41:44;;;;;;;8.17;1.80;;;9.70;1.00;;;;;;4962647;28;20264;-66
2023/03/25 01:44:20;;;;;;;5.87;2.10;;;9.70;1.00;;;;;;4962681;28;20208;-67
2023/03/25 01:46:51;;;;;;;6.30;1.80;;;9.70;1.00;;;;;;4961056;28;20576;-65
2023/03/25 01:49:43;;;;;;;7.33;2.80;;;9.70;1.00;;;;;;4959622;28;20211;-67
2023/03/25 01:52:36;;;;;;;8.67;2.13;;;9.70;1.00;;;;;;4960452;28;20289;-66
2023/03/25 01:55:04;;;;;;;4.60;2.27;;;9.70;1.00;;;;;;4966461;28;20626;-66
2023/03/25 01:57:31;;;;;;;3.73;1.87;;;9.60;1.00;;;;;;4977468;28;20221;-69
2023/03/25 01:59:59;;;;;;;9.20;4.10;;;9.60;1.00;;;;;;4963031;28;20230;-66
2023/03/25 02:02:33;;;;;;;8.03;3.43;;;9.60;1.00;;;;;;4975780;28;20229;-72
2023/03/25 02:05:09;;;;;;;6.23;3.73;;;9.60;1.00;;;;;;4959738;28;20198;-73
2023/03/25 02:07:41;;;;;;;7.40;2.83;;;9.60;1.00;;;;;;4973594;28;20210;-72
2023/03/25 02:10:11;;;;;;;9.63;3.57;;;9.60;1.00;;;;;;4959604;28;20195;-75
2023/03/25 02:12:39;;;;;;;7.70;2.53;;;9.50;1.00;;;;;;4960365;28;20205;-72
2023/03/25 02:15:09;;;;;;;7.67;3.97;;;9.50;1.00;;;;;;4975949;28;20216;-72
2023/03/25 02:18:03;;;;;;;7.77;5.57;;;9.40;1.00;;;;;;4944783;28;20691;-72
2023/03/25 02:21:01;;;;;;;10.50;2.80;;;9.30;1.00;;;;;;4976441;28;20214;-72
2023/03/25 02:23:40;;;;;;;8.50;3.57;;;9.30;1.00;;;;;;4972160;28;20666;-72
2023/03/25 02:26:35;;;;;;;7.50;3.90;;;9.30;1.00;;;;;;4956322;28;20222;-71
2023/03/25 02:29:24;;;;;;;14.87;3.10;;;9.30;1.00;;;;;;4959824;28;20214;-75
2023/03/25 02:32:26;;;;;;;7.87;3.67;;;9.30;1.00;;;;;;4977261;28;20253;-72
2023/03/25 02:35:08;;;;;;;10.67;6.90;;;9.40;1.00;;;;;;4959676;28;20318;-71
2023/03/25 02:37:52;;;;;;;6.87;2.63;;;9.40;1.00;;;;;;4974694;28;20361;-72
2023/03/25 02:40:37;;;;;;;6.00;2.30;;;9.40;1.00;;;;;;4960692;28;20202;-70
2023/03/25 02:43:12;;;;;;;8.30;5.33;;;9.40;1.00;;;;;;4974107;28;20671;-72
2023/03/25 02:45:48;;;;;;;9.10;3.60;;;9.40;1.00;;;;;;4975581;28;20208;-71
2023/03/25 02:48:31;;;;;;;6.60;2.10;;;9.50;1.00;;;;;;4959170;28;20217;-79
2023/03/25 02:51:03;;;;;;;6.47;1.90;;;9.50;1.00;;;;;;4975586;28;20556;-72
2023/03/25 02:53:34;;;;;;;7.30;2.40;;;9.50;1.00;;;;;;4957870;28;20201;-71
2023/03/25 02:56:09;;;;;;;8.20;2.10;;;9.50;1.00;;;;;;4958697;28;20285;-69
2023/03/25 02:58:39;;;;;;;8.17;1.93;;;9.40;1.00;;;;;;4977518;28;20206;-71
2023/03/25 03:01:08;;;;;;;6.23;1.63;;;9.40;1.00;;;;;;4960914;28;20317;-71
2023/03/25 03:03:36;;;;;;;3.40;1.97;;;9.30;1.00;;;;;;4974637;28;20203;-71
2023/03/25 03:06:05;;;;;;;4.97;1.90;;;9.20;1.00;;;;;;4975362;28;20192;-71
2023/03/25 03:08:59;;;;;;;7.70;2.00;;;9.30;1.00;;;;;;4973459;28;20269;-73
2023/03/25 03:11:57;;;;;;;7.30;1.93;;;9.30;1.00;;;;;;4953669;28;20244;-71
2023/03/25 03:15:02;;;;;;;4.20;2.10;;;9.40;1.00;;;;;;4957535;28;20532;-71
2023/03/25 03:17:30;;;;;;;6.30;1.73;;;9.40;1.00;;;;;;4957943;28;20210;-71
2023/03/25 03:20:15;;;;;;;5.57;1.87;;;9.40;1.00;;;;;;4962366;28;20206;-71
2023/03/25 03:22:52;;;;;;;8.63;2.90;;;9.40;1.00;;;;;;4960518;28;20190;-72
2023/03/25 03:25:27;;;;;;;11.37;1.90;;;9.40;1.00;;;;;;4958939;28;20248;-72
2023/03/25 03:27:57;;;;;;;3.33;1.30;;;9.40;1.00;;;;;;4976942;28;20732;-71
2023/03/25 03:30:33;;;;;;;6.30;1.63;;;9.40;1.00;;;;;;4951867;28;20230;-73
2023/03/25 03:33:27;;;;;;;3.10;1.50;;;9.50;1.00;;;;;;4959837;28;20394;-71
2023/03/25 03:36:00;;;;;;;3.37;1.50;;;9.40;1.00;;;;;;4959711;28;20201;-71
2023/03/25 03:38:34;;;;;;;3.13;1.47;;;9.50;1.00;;;;;;4959918;28;20674;-70
2023/03/25 03:41:06;;;;;;;4.40;1.53;;;9.40;1.00;;;;;;4960551;28;20218;-71
2023/03/25 03:43:47;;;;;;;2.77;1.47;;;9.40;1.00;;;;;;4958635;28;20198;-71
2023/03/25 03:46:28;;;;;;;3.27;1.30;;;9.40;1.00;;;;;;4959640;28;20225;-71
2023/03/25 03:48:58;;;;;;;3.33;1.40;;;9.30;1.00;;;;;;4959795;28;20227;-71
2023/03/25 03:51:29;;;;;;;4.33;1.30;;;9.40;1.00;;;;;;4965832;28;20289;-71
2023/03/25 03:53:59;;;;;;;3.83;1.43;;;9.30;1.00;;;;;;4958855;28;20690;-71
2023/03/25 03:56:46;;;;;;;2.77;1.30;;;9.30;1.00;;;;;;4959433;28;20683;-71
2023/03/25 03:59:23;;;;;;;3.67;1.80;;;9.30;1.00;;;;;;4961419;28;20214;-75
2023/03/25 04:01:58;;;;;;;4.93;1.30;;;9.40;1.00;;;;;;4973753;28;20228;-70
2023/03/25 04:04:25;;;;;;;3.33;1.47;;;9.40;1.00;;;;;;4977607;28;20206;-70
2023/03/25 04:06:56;;;;;;;4.03;1.70;;;9.40;1.00;;;;;;4963745;28;20190;-72
2023/03/25 04:09:55;;;;;;;3.07;1.47;;;9.40;1.00;;;;;;4962873;28;20277;-74
2023/03/25 04:12:36;;;;;;;3.10;1.57;;;9.40;1.00;;;;;;4977038;28;20218;-73
2023/03/25 04:15:05;;;;;;;4.47;1.50;;;9.40;1.00;;;;;;4963909;28;20203;-71
2023/03/25 04:17:32;;;;;;;5.57;1.57;;;9.40;1.00;;;;;;4963816;28;20199;-71
2023/03/25 04:20:00;;;;;;;4.97;1.70;;;9.40;1.00;;;;;;4979321;28;20218;-73
2023/03/25 04:22:27;;;;;;;2.83;1.50;;;9.40;1.00;;;;;;4955731;28;20197;-71
2023/03/25 04:24:55;;;;;;;1.50;1.30;;;9.40;1.00;;;;;;4962336;28;20198;-71
2023/03/25 04:27:22;;;;;;;3.60;1.70;;;9.30;1.00;;;;;;4979261;28;20260;-71
2023/03/25 04:29:50;;;;;;;3.70;1.80;;;9.20;1.00;;;;;;4977193;28;20213;-70
2023/03/25 04:32:17;;;;;;;3.97;2.87;;;9.00;1.00;;;;;;4962068;28;20666;-70
2023/03/25 04:34:45;;;;;;;8.20;4.97;;;8.80;1.00;;;;;;4963963;28;20271;-71
2023/03/25 04:37:13;;;;;;;6.47;2.10;;;8.80;1.00;;;;;;4978393;28;20297;-70
2023/03/25 04:39:40;;;;;;;4.87;3.10;;;8.70;1.00;;;;;;4961796;28;20226;-71
2023/03/25 04:42:12;;;;;;;6.93;2.30;;;8.70;1.00;;;;;;4963019;28;20195;-71
2023/03/25 04:44:39;;;;;;;4.67;1.90;;;8.80;1.00;;;;;;4962626;28;20198;-77
2023/03/25 04:47:10;;;;;;;7.63;2.33;;;8.80;1.00;;;;;;4976652;28;20210;-70
2023/03/25 04:49:37;;;;;;;8.13;2.10;;;8.80;1.00;;;;;;4977912;28;20619;-72
2023/03/25 04:52:05;;;;;;;3.80;1.63;;;8.90;1.00;;;;;;4963130;28;21059;-71
2023/03/25 04:54:32;;;;;;;9.83;3.87;;;8.90;1.00;;;;;;4982150;28;20692;-70
2023/03/25 04:57:00;;;;;;;4.83;2.67;;;8.80;1.00;;;;;;4962386;28;20215;-71
2023/03/25 04:59:27;;;;;;;4.83;1.70;;;8.80;1.00;;;;;;4976217;28;20236;-70
2023/03/25 05:01:54;;;;;;;6.93;2.67;;;8.80;1.00;;;;;;4975634;28;20194;-70
2023/03/25 05:04:23;;;;;;;9.07;2.57;;;8.80;1.00;;;;;;4979491;28;20194;-71
2023/03/25 05:06:50;;;;;;;5.63;3.70;;;8.80;1.00;;;;;;4960802;28;20211;-70
2023/03/25 05:09:23;;;;;;;3.97;1.80;;;8.80;1.00;;;;;;4962423;28;20279;-71
2023/03/25 05:11:51;;;;;;;6.90;4.67;;;8.80;1.00;;;;;;4977582;28;20257;-70
2023/03/25 05:14:20;;;;;;;11.83;3.00;;;8.80;1.00;;;;;;4963868;28;20199;-70
2023/03/25 05:16:47;;;;;;;5.60;2.70;;;8.80;1.00;;;;;;4963315;28;20202;-75
2023/03/25 05:19:17;;;;;;;8.23;4.10;;;8.80;1.00;;;;;;4965631;28;20217;-71
2023/03/25 05:21:45;;;;;;;9.33;3.20;;;8.80;1.00;;;;;;4961092;28;20219;-70
2023/03/25 05:24:12;;;;;;;5.50;3.50;;;8.80;1.00;;;;;;4976010;28;20203;-70
2023/03/25 05:26:43;;;;;;;3.40;2.17;;;8.80;1.00;;;;;;4961273;28;20225;-70
2023/03/25 05:29:13;;;;;;;7.90;4.23;;;8.90;1.00;;;;;;4980017;28;20198;-70
2023/03/25 05:31:41;;;;;;;6.93;3.83;;;8.90;1.00;;;;;;4964143;28;20734;-70
2023/03/25 05:34:08;;;;;;;6.07;2.50;;;9.00;1.00;;;;;;4975987;28;20204;-71
2023/03/25 05:36:35;;;;;;;8.83;3.97;;;8.90;1.00;;;;;;4978997;28;20757;-69
2023/03/25 05:39:04;;;;;;;10.23;3.87;;;8.80;1.00;;;;;;4961669;28;20222;-72
2023/03/25 05:41:31;;;;;;;11.13;3.20;;;8.70;1.00;;;;;;4959889;28;20194;-72
2023/03/25 05:44:00;;;;;;;5.07;2.07;;;8.70;1.00;;;;;;4977390;28;20737;-72
2023/03/25 05:46:28;;;;;;;11.10;3.07;;;8.70;1.00;;;;;;4962679;28;20225;-72
2023/03/25 05:48:56;;;;;;;8.37;3.27;;;8.80;1.00;;;;;;4962645;28;20220;-72
2023/03/25 05:51:24;;;;;;;9.37;2.60;;;8.90;1.00;;;;;;4962174;28;20262;-72
2023/03/25 05:53:52;;;;;;;6.70;2.80;;;8.90;1.00;;;;;;4961072;28;20207;-72
2023/03/25 05:56:21;;;;;;;7.73;2.13;;;9.00;1.00;;;;;;4960099;28;20396;-74
2023/03/25 05:58:50;;;;;;;6.87;2.07;;;9.00;1.00;;;;;;4959412;28;20535;-72
2023/03/25 06:01:20;;;;;;;9.83;2.03;;;9.00;1.00;;;;;;4965199;28;20240;-71
2023/03/25 06:04:01;;;;;;;5.13;1.90;;;9.00;1.00;;;;;;4975352;28;20607;-73
2023/03/25 06:06:32;;;;;;;6.83;1.90;;;9.10;1.00;;;;;;4967960;28;20199;-71
2023/03/25 06:09:01;;;;;;;6.97;2.13;;;9.10;1.00;;;;;;4961216;28;20203;-72
2023/03/25 06:11:28;;;;;;;4.70;2.00;;;9.10;1.00;;;;;;4961338;28;20269;-70
2023/03/25 06:13:55;;;;;;;3.97;1.70;;;9.10;1.00;;;;;;4963128;28;20199;-71
2023/03/25 06:16:28;;;;;;;5.13;2.37;;;9.10;1.00;;;;;;4976285;28;20319;-71
2023/03/25 06:18:58;;;;;;;6.57;2.23;;;9.10;1.00;;;;;;4960682;28;20219;-70
2023/03/25 06:21:28;;;;;;;5.53;1.80;;;9.00;1.00;;;;;;4968424;28;20292;-71
2023/03/25 06:23:58;;;;;;;6.90;2.10;;;9.00;1.00;;;;;;4960474;28;20821;-71
2023/03/25 06:26:25;;;;;;;5.53;2.80;;;9.00;1.00;;;;;;4961216;28;20204;-72
2023/03/25 06:28:53;;;;;;;5.20;2.20;;;9.00;1.00;;;;;;4974986;28;20210;-70
2023/03/25 06:31:32;;;;;;;6.17;2.20;;;9.20;1.00;;;;;;4961008;28;20200;-71
2023/03/25 06:34:00;;;;;;;8.03;2.00;;;9.20;1.00;;;;;;4976037;28;20225;-71
2023/03/25 06:36:27;;;;;;;6.17;2.10;;;9.20;1.00;;;;;;4956264;28;20199;-71
2023/03/25 06:38:54;;;;;;;8.37;2.63;;;9.20;1.00;;;;;;4959164;28;20309;-70
2023/03/25 06:41:24;;;;;;;12.17;2.30;;;9.30;1.00;;;;;;4976644;28;20301;-71
2023/03/25 06:44:08;;;;;;;6.23;3.10;;;9.30;1.00;;;;;;4959828;28;20214;-70
2023/03/25 06:46:44;;;;;;;8.57;2.80;;;9.30;1.00;;;;;;4960513;28;20206;-71
2023/03/25 06:49:16;;;;;;;26.23;17.33;;;9.30;1.00;;;;;;4975154;28;20252;-72
2023/03/25 06:51:43;;;;;;;6.07;3.03;;;9.30;1.00;;;;;;4954022;28;20201;-70
2023/03/25 06:54:10;;;;;;;3.87;2.03;;;9.30;1.00;;;;;;4957876;28;20308;-72
2023/03/25 06:56:37;;;;;;;7.50;2.40;;;9.30;1.00;;;;;;4957533;28;20615;-70
2023/03/25 06:59:05;;;;;;;7.47;2.17;;;9.30;1.00;;;;;;4974448;28;20245;-70
2023/03/25 07:01:32;;;;;;;3.53;2.10;;;9.30;1.00;;;;;;4958404;28;20737;-69
2023/03/25 07:03:59;;;;;;;7.77;2.30;;;9.40;1.00;;;;;;4963487;28;20670;-71
2023/03/25 07:06:26;;;;;;;4.70;2.07;;;9.40;1.00;;;;;;4977472;28;20202;-71
2023/03/25 07:08:52;;;;;;;4.43;2.13;;;9.50;1.00;;;;;;4958565;28;20233;-70
2023/03/25 07:11:28;;;;;;;6.13;2.23;;;9.50;1.00;;;;;;4960831;28;20237;-70
2023/03/25 07:13:55;;;;;;;5.30;2.30;;;9.50;1.00;;;;;;4960760;28;20186;-70
2023/03/25 07:16:24;;;;;;;4.53;1.90;;;9.60;1.00;;;;;;4976404;28;20678;-75
2023/03/25 07:18:55;;;;;;;6.50;2.67;;;9.60;1.00;;;;;;4960556;28;20772;-70
2023/03/25 07:21:22;;;;;;;6.97;2.50;;;10.70;1.00;;;;;;4957168;28;20233;-76
2023/03/25 07:23:49;;;;;;;7.60;3.10;;;11.80;1.00;;;;;;4958888;28;20202;-72
2023/03/25 07:26:17;;;;;;;7.63;4.13;;;11.60;1.00;;;;;;4975971;28;20281;-71
2023/03/25 07:28:45;;;;;;;4.90;2.27;;;11.10;1.00;;;;;;4957470;28;20203;-72
2023/03/25 07:31:13;;;;;;;6.40;2.10;;;10.80;1.00;;;;;;4960360;28;20194;-71
2023/03/25 07:33:40;;;;;;;7.43;2.43;;;10.40;1.00;;;;;;4975847;28;20206;-71
2023/03/25 07:36:10;;;;;;;8.60;2.00;;;10.30;1.00;;;;;;4973894;28;20195;-71
2023/03/25 07:38:37;;;;;;;6.90;2.27;;;10.70;1.00;;;;;;4959542;28;20324;-71
2023/03/25 07:41:10;;;;;;;6.17;1.90;;;11.20;1.00;;;;;;4971898;28;20228;-71
2023/03/25 07:43:40;;;;;;;5.67;1.70;;;11.00;1.00;;;;;;4972908;28;20510;-71
2023/03/25 07:46:20;;;;;;;6.20;1.73;;;10.70;1.00;;;;;;4973604;28;20202;-73
2023/03/25 07:48:47;;;;;;;7.60;1.73;;;10.80;1.00;;;;;;4955990;28;20214;-72
2023/03/25 07:51:14;;;;;;;3.77;1.60;;;11.00;1.00;;;;;;4973722;28;20322;-71
2023/03/25 07:53:43;;;;;;;7.33;1.80;;;10.70;1.00;;;;;;4955919;28;20300;-71
2023/03/25 07:56:10;;;;;;;7.80;2.33;;;10.70;1.00;;;;;;4960209;28;20276;-71
2023/03/25 07:58:37;;;;;;;5.87;1.80;;;10.60;1.00;;;;;;4960654;28;20206;-71
2023/03/25 08:01:05;;;;;;;4.87;1.50;;;11.70;1.00;;;;;;4974319;28;20333;-71
2023/03/25 08:03:32;;;;;;;4.17;1.77;;;12.40;1.00;;;;;;4974028;28;20253;-71
2023/03/25 08:06:01;;;;;;;4.93;1.33;;;12.20;1.00;;;;;;4959480;28;20194;-72
2023/03/25 08:08:31;;;;;;;5.53;1.50;;;12.30;1.00;;;;;;4959680;28;20288;-72
2023/03/25 08:10:58;;;;;;;7.93;2.00;;;13.30;1.00;;;;;;4960578;28;20206;-71
2023/03/25 08:13:25;;;;;;;7.00;2.17;;;13.50;1.00;;;;;;4958338;28;20246;-73
2023/03/25 08:15:52;;;;;;;4.77;1.57;;;13.40;1.00;;;;;;4960762;28;20212;-71
2023/03/25 08:18:20;;;;;;;4.07;1.70;;;14.20;1.00;;;;;;4959864;28;20234;-71
2023/03/25 08:20:50;;;;;;;5.43;2.10;;;13.50;1.00;;;;;;4960557;28;20207;-71
2023/03/25 08:23:18;;;;;;;11.20;2.27;;;11.90;1.00;;;;;;4975499;28;20202;-71
2023/03/25 08:25:48;;;;;;;5.37;1.70;;;11.50;1.00;;;;;;4975540;28;20686;-71
2023/03/25 08:28:21;;;;;;;6.03;2.07;;;11.20;1.00;;;;;;4960360;28;20223;-71
2023/03/25 08:30:53;;;;;;;6.17;2.10;;;11.00;1.00;;;;;;4974002;28;20214;-71
2023/03/25 08:33:26;;;;;;;6.70;1.80;;;10.90;1.00;;;;;;4959964;28;20202;-71
2023/03/25 08:35:56;;;;;;;5.07;2.10;;;10.90;1.00;;;;;;4959103;28;20335;-73
2023/03/25 08:38:24;;;;;;;7.93;2.43;;;11.10;1.00;;;;;;4961269;28;20202;-71
2023/03/25 08:40:51;;;;;;;4.27;1.83;;;11.30;1.00;;;;;;4958193;28;20227;-71
2023/03/25 08:43:18;;;;;;;7.70;2.10;;;11.30;1.00;;;;;;4959611;28;20203;-71
2023/03/25 08:45:45;;;;;;;8.40;2.57;;;11.60;1.00;;;;;;4954120;28;20194;-72
2023/03/25 08:48:12;;;;;;;6.83;2.40;;;11.60;1.00;;;;;;4959784;28;20230;-79
2023/03/25 08:50:39;;;;;;;7.30;2.53;;;11.20;1.00;;;;;;4961057;28;20208;-70
2023/03/25 08:53:06;;;;;;;11.20;2.57;;;11.10;1.00;;;;;;4962699;28;20190;-72
2023/03/25 08:55:33;;;;;;;7.53;2.57;;;10.90;1.00;;;;;;4963100;28;21219;-70
2023/03/25 08:58:05;;;;;;;8.87;2.10;;;10.80;1.00;;;;;;4963502;28;20252;-70
2023/03/25 09:00:32;;;;;;;11.23;2.87;;;10.80;1.00;;;;;;4961641;28;20721;-68
2023/03/25 09:02:59;;;;;;;6.23;2.30;;;11.40;1.00;;;;;;4945626;28;20203;-70
2023/03/25 09:05:26;;;;;;;7.33;2.17;;;12.30;1.00;;;;;;4961572;28;20195;-70
2023/03/25 09:07:53;;;;;;;6.87;2.03;;;12.60;1.00;;;;;;4961443;28;20195;-69
2023/03/25 09:10:20;;;;;;;4.73;1.63;;;12.40;1.00;;;;;;4961861;28;20202;-69
2023/03/25 09:12:47;;;;;;;6.97;2.43;;;11.50;1.00;;;;;;4976301;28;20260;-67
2023/03/25 09:15:14;;;;;;;6.67;1.93;;;11.30;1.00;;;;;;4961656;28;20218;-68
2023/03/25 09:17:41;;;;;;;8.70;2.60;;;11.50;1.00;;;;;;4961739;28;20277;-69
2023/03/25 09:20:09;;;;;;;9.20;2.27;;;11.60;1.00;;;;;;4960889;28;20558;-68
2023/03/25 09:22:38;;;;;;;6.40;2.00;;;11.30;1.00;;;;;;4964878;28;20245;-70
2023/03/25 09:25:05;;;;;;;7.77;2.20;;;11.20;1.00;;;;;;4977146;28;20203;-71
2023/03/25 09:27:33;;;;;;;9.07;2.80;;;11.10;1.00;;;;;;4961015;28;20289;-70
2023/03/25 09:30:00;;;;;;;7.40;1.80;;;11.30;1.00;;;;;;4963752;28;20545;-73
2023/03/25 09:32:28;;;;;;;11.63;2.77;;;12.50;1.00;;;;;;4958861;28;20207;-72
2023/03/25 09:34:55;;;;;;;9.27;2.40;;;13.20;1.00;;;;;;4977880;28;20206;-71
2023/03/25 09:37:22;;;;;;;7.63;2.03;;;13.70;1.00;;;;;;4961406;28;20623;-71
2023/03/25 09:39:49;;;;;;;8.60;2.40;;;13.10;1.00;;;;;;4960728;28;20246;-71
2023/03/25 09:42:43;;;;;;;10.63;2.90;;;12.10;1.00;;;;;;4960554;28;20204;-72
2023/03/25 09:45:19;;;;;;;8.50;2.40;;;11.60;1.00;;;;;;4976357;28;20221;-71
2023/03/25 09:48:02;;;;;;;8.00;2.60;;;11.40;1.00;;;;;;4960618;28;20614;-72
2023/03/25 09:50:32;;;;;;;6.93;2.30;;;11.50;1.00;;;;;;4976494;28;20614;-72
2023/03/25 09:53:09;;;;;;;5.23;2.13;;;11.60;1.00;;;;;;4963435;28;20202;-72
2023/03/25 09:55:40;;;;;;;8.13;2.70;;;11.70;1.00;;;;;;4962443;28;20198;-71
2023/03/25 09:58:28;;;;;;;9.27;2.23;;;11.60;1.00;;;;;;4961432;28;20337;-70
2023/03/25 10:01:03;;;;;;;8.67;2.37;;;11.60;1.00;;;;;;4961118;28;20254;-72
2023/03/25 10:03:58;;;;;;;9.10;2.67;;;11.60;1.00;;;;;;4961366;28;20202;-70
2023/03/25 10:06:26;;;;;;;9.07;2.60;;;12.00;1.00;;;;;;4963486;28;20222;-71
2023/03/25 10:09:31;;;;;;;9.87;2.53;;;14.20;1.00;;;;;;4959167;28;20201;-70
2023/03/25 10:12:11;;;;;;;6.80;2.13;;;14.60;1.00;;;;;;4976452;28;20230;-70
2023/03/25 10:14:56;;;;;;;8.23;2.28;;;16.00;1.00;;;;;;4958128;28;20279;-73
2023/03/25 10:18:03;;;;;;;6.97;2.20;;;19.00;1.00;;;;;;4963107;28;20202;-72
2023/03/25 10:21:00;;;;;;;8.52;2.60;;;18.10;1.00;;;;;;4967550;28;20218;-73
2023/03/25 10:23:40;;;;;;;7.93;2.58;;;15.00;1.00;;;;;;4958549;28;20567;-73
2023/03/25 10:26:18;;;;;;;8.67;2.63;;;12.80;1.00;;;;;;4978105;28;20288;-70
2023/03/25 10:28:52;;;;;;;8.00;2.40;;;12.30;1.00;;;;;;4967799;28;20291;-71
2023/03/25 10:31:25;;;;;;;7.67;2.30;;;11.90;1.00;;;;;;4966673;28;20307;-71
2023/03/25 10:33:56;;;;;;;7.30;2.37;;;11.80;1.00;;;;;;4966841;28;20557;-70
2023/03/25 10:36:43;;;;;;;8.37;2.47;;;11.50;1.00;;;;;;4969365;28;20294;-69
2023/03/25 10:39:17;;;;;;;11.40;2.73;;;10.90;1.00;;;;;;4984538;28;20225;-71
2023/03/25 10:41:50;;;;;;;13.23;3.20;;;10.90;1.00;;;;;;4967348;28;20218;-70
2023/03/25 10:44:20;;;;;;;14.53;2.83;;;11.20;1.00;;;;;;4961488;28;20701;-70
2023/03/25 10:46:57;;;;;;;6.83;3.00;;;11.20;1.00;;;;;;4974478;28;20734;-70
2023/03/25 10:49:28;;;;;;;8.37;2.33;;;10.90;1.00;;;;;;4975153;28;20278;-71
2023/03/25 10:51:58;;;;;;;10.83;2.80;;;11.00;1.00;;;;;;4976300;28;20649;-71
2023/03/25 10:54:30;;;;;;;9.37;3.20;;;11.00;1.00;;;;;;4958487;28;20206;-71
2023/03/25 10:57:09;;;;;;;9.93;2.93;;;11.10;1.00;;;;;;4958697;28;20562;-71
2023/03/25 10:59:59;;;;;;;12.90;2.20;;;11.30;1.00;;;;;;4975266;28;20661;-71
2023/03/25 11:02:29;;;;;;;12.27;2.87;;;11.40;1.00;;;;;;4942193;28;20202;-71
2023/03/25 11:05:00;;;;;;;9.50;3.33;;;11.20;1.00;;;;;;4960954;28;20222;-71
2023/03/25 11:07:35;;;;;;;10.43;2.70;;;11.30;1.00;;;;;;4960230;28;20194;-71
2023/03/25 11:10:14;;;;;;;8.87;2.83;;;11.20;1.00;;;;;;4960866;28;20185;-70
2023/03/25 11:12:44;;;;;;;9.10;2.90;;;11.20;1.00;;;;;;4960323;28;20209;-71
2023/03/25 11:15:35;;;;;;;10.60;3.23;;;11.30;1.00;;;;;;4975815;28;20249;-71
2023/03/25 11:18:13;;;;;;;9.17;2.80;;;12.80;1.00;;;;;;4959031;28;20210;-70
2023/03/25 11:20:47;;;;;;;7.32;2.40;;;15.30;1.00;;;;;;4960580;28;20223;-73
2023/03/25 11:23:26;;;;;;;7.03;2.03;;;15.80;1.00;;;;;;4959802;28;20194;-73
2023/03/25 11:26:21;;;;;;;5.40;1.80;;;15.20;1.00;;;;;;4960779;28;20198;-70
2023/03/25 11:28:51;;;;;;;7.95;1.92;;;14.70;1.00;;;;;;4955973;28;20298;-73
2023/03/25 11:31:20;;;;;;;5.40;2.03;;;15.40;1.00;;;;;;4960258;28;20195;-72
2023/03/25 11:34:22;;;;;;;5.40;2.08;;;14.60;1.00;;;;;;4959144;28;20202;-72
2023/03/25 11:36:57;;;;;;;6.72;2.25;;;13.40;1.00;;;;;;4974418;28;20202;-72
2023/03/25 11:39:31;;;;;;;6.47;2.57;;;13.10;1.00;;;;;;4959774;28;20206;-73
2023/03/25 11:41:59;;;;;;;9.27;2.60;;;12.40;1.00;;;;;;4958460;28;20214;-72
2023/03/25 11:44:30;;;;;;;10.20;3.33;;;12.20;1.00;;;;;;4959916;28;20674;-73
2023/03/25 11:47:09;;;;;;;7.90;2.60;;;11.90;1.00;;;;;;4958705;28;20205;-72
2023/03/25 11:49:38;;;;;;;9.67;3.37;;;11.60;1.00;;;;;;4958127;28;20225;-72
2023/03/25 11:52:13;;;;;;;11.83;3.13;;;11.80;1.00;;;;;;4974398;28;20198;-71
2023/03/25 11:54:41;;;;;;;14.13;5.90;;;12.00;1.00;;;;;;4957923;28;20197;-71
2023/03/25 11:57:17;;;;;;;15.63;7.43;;;11.90;1.00;;;;;;4976119;28;20313;-71
2023/03/25 11:59:46;;;;;;;13.13;7.33;;;12.00;1.00;;;;;;4960677;28;20716;-71
2023/03/25 12:02:18;;;;;;;10.90;3.30;;;11.40;1.00;;;;;;4959537;28;20218;-71
2023/03/25 12:04:57;;;;;;;13.57;3.53;;;11.00;1.00;;;;;;4958603;28;20211;-71
2023/03/25 12:07:24;;;;;;;10.53;3.33;;;11.40;1.00;;;;;;4958585;28;20198;-71
2023/03/25 12:09:57;;;;;;;9.40;3.20;;;11.20;1.00;;;;;;4960550;28;20260;-70
2023/03/25 12:12:40;;;;;;;13.63;3.87;;;11.40;1.00;;;;;;4958458;28;20623;-71
2023/03/25 12:15:07;;;;;;;7.53;2.80;;;12.30;1.00;;;;;;4959046;28;20692;-71
2023/03/25 12:17:41;;;;;;;9.37;3.37;;;13.20;1.00;;;;;;4951440;28;20218;-70
2023/03/25 12:20:31;;;;;;;4.90;2.60;;;14.00;1.00;;;;;;4974596;28;20258;-71
2023/03/25 12:23:25;;;;;;;7.72;2.60;;;14.80;1.00;;;;;;4976534;28;20736;-70
2023/03/25 12:26:05;;;;;;;8.48;2.60;;;16.10;1.00;;;;;;4974492;28;20203;-71
2023/03/25 12:28:40;;;;;;;6.07;2.47;;;15.10;1.00;;;;;;4961443;28;20205;-75
2023/03/25 12:31:42;;;;;;;7.03;2.17;;;14.30;1.00;;;;;;4964087;28;20256;-69
2023/03/25 12:34:13;;;;;;;8.43;2.67;;;13.80;1.00;;;;;;4977156;28;20705;-73
2023/03/25 12:37:00;;;;;;;9.50;2.63;;;13.70;1.00;;;;;;4964072;28;20523;-71
2023/03/25 12:39:33;;;;;;;7.37;2.13;;;13.80;1.00;;;;;;4963758;28;20209;-71
2023/03/25 12:42:29;;;;;;;7.77;2.73;;;13.30;1.00;;;;;;4960939;28;20211;-71
2023/03/25 12:45:18;;;;;;;4.60;1.80;;;12.70;1.00;;;;;;4961943;28;20227;-73
2023/03/25 12:48:32;;;;;;;7.33;2.13;;;12.50;1.00;;;;;;4962107;28;20754;-76
2023/03/25 12:51:20;;;;;;;8.10;2.00;;;12.30;1.00;;;;;;4964406;28;20206;-70
2023/03/25 12:53:50;;;;;;;8.57;2.37;;;12.10;1.00;;;;;;4963271;28;20186;-72
2023/03/25 12:56:43;;;;;;;7.37;2.10;;;12.00;1.00;;;;;;4964019;28;20852;-72
2023/03/25 12:59:43;;;;;;;8.37;2.40;;;12.00;1.00;;;;;;4961716;28;20293;-72
2023/03/25 13:02:43;;;;;;;8.73;2.63;;;11.80;1.00;;;;;;4964210;28;20305;-72
2023/03/25 13:05:31;;;;;;;7.60;2.57;;;11.70;1.00;;;;;;4977588;28;20206;-70
2023/03/25 13:08:11;;;;;;;8.27;3.20;;;11.60;1.00;;;;;;4962686;28;20548;-71
2023/03/25 13:10:42;;;;;;;8.60;2.07;;;11.60;1.00;;;;;;4962120;28;20197;-71
2023/03/25 13:13:18;;;;;;;13.30;2.83;;;11.60;1.00;;;;;;4963290;28;20202;-71
2023/03/25 13:15:53;;;;;;;9.87;3.43;;;11.70;1.00;;;;;;4977490;28;20670;-72
2023/03/25 13:18:40;;;;;;;6.60;2.40;;;12.30;1.00;;;;;;4964037;28;20229;-71
2023/03/25 13:21:20;;;;;;;7.07;2.70;;;12.90;1.00;;;;;;4963706;28;20711;-71
2023/03/25 13:23:53;;;;;;;8.57;3.57;;;13.10;1.00;;;;;;4944458;28;20746;-71
2023/03/25 13:26:23;;;;;;;6.83;2.23;;;13.50;1.00;;;;;;4963637;28;20222;-74
2023/03/25 13:28:58;;;;;;;6.80;2.37;;;13.50;1.00;;;;;;4979075;28;20690;-72
2023/03/25 13:31:31;;;;;;;5.00;2.27;;;13.60;1.00;;;;;;4960622;28;20749;-71